sensor_id;sensor_type;location;lat;lon;timestamp;temperature;humidity
39453;DHT22;25154;-33.684;151.102;2023-08-01T00:04:57;14.90;99.90
39453;DHT22;25154;-33.684;151.102;2023-08-01T00:09:59;15.20;99.90
39453;DHT22;25154;-33.684;151.102;2023-08-01T00:15:03;15.30;99.90
39453;DHT22;25154;-33.684;151.102;2023-08-01T00:20:07;15.50;99.90
39453;DHT22;25154;-33.684;151.102;2023-08-01T00:25:10;15.70;99.10
39453;DHT22;25154;-33.684;151.102;2023-08-01T00:30:12;15.70;98.90
39453;DHT22;25154;-33.684;151.102;2023-08-01T00:35:14;16.20;97.70
39453;DHT22;25154;-33.684;151.102;2023-08-01T00:40:18;16.20;97.50
39453;DHT22;25154;-33.684;151.102;2023-08-01T00:45:20;16.40;95.70
39453;DHT22;25154;-33.684;151.102;2023-08-01T00:50:23;16.70;95.20
39453;DHT22;25154;-33.684;151.102;2023-08-01T00:55:27;16.60;94.90
39453;DHT22;25154;-33.684;151.102;2023-08-01T01:00:32;16.50;93.10
39453;DHT22;25154;-33.684;151.102;2023-08-01T01:05:38;16.70;93.10
39453;DHT22;25154;-33.684;151.102;2023-08-01T01:10:42;16.80;93.10
39453;DHT22;25154;-33.684;151.102;2023-08-01T01:15:44;16.70;92.40
39453;DHT22;25154;-33.684;151.102;2023-08-01T01:20:47;17.10;93.20
39453;DHT22;25154;-33.684;151.102;2023-08-01T01:25:51;17.20;91.80
39453;DHT22;25154;-33.684;151.102;2023-08-01T01:30:54;17.20;91.20
39453;DHT22;25154;-33.684;151.102;2023-08-01T01:35:57;17.30;91.10
39453;DHT22;25154;-33.684;151.102;2023-08-01T01:40:59;17.40;91.80
39453;DHT22;25154;-33.684;151.102;2023-08-01T01:46:01;17.60;91.10
39453;DHT22;25154;-33.684;151.102;2023-08-01T01:51:04;17.70;90.70
39453;DHT22;25154;-33.684;151.102;2023-08-01T01:56:06;18.00;90.70
39453;DHT22;25154;-33.684;151.102;2023-08-01T02:01:10;18.50;90.70
39453;DHT22;25154;-33.684;151.102;2023-08-01T02:06:13;18.50;89.00
39453;DHT22;25154;-33.684;151.102;2023-08-01T02:11:15;18.40;90.30
39453;DHT22;25154;-33.684;151.102;2023-08-01T02:16:18;18.10;91.20
39453;DHT22;25154;-33.684;151.102;2023-08-01T02:21:21;16.80;90.60
39453;DHT22;25154;-33.684;151.102;2023-08-01T02:26:24;18.80;88.60
39453;DHT22;25154;-33.684;151.102;2023-08-01T02:31:26;18.60;88.90
39453;DHT22;25154;-33.684;151.102;2023-08-01T02:36:29;18.60;89.10
39453;DHT22;25154;-33.684;151.102;2023-08-01T02:41:32;19.60;88.50
39453;DHT22;25154;-33.684;151.102;2023-08-01T02:46:34;19.20;88.50
39453;DHT22;25154;-33.684;151.102;2023-08-01T02:51:37;19.10;86.50
39453;DHT22;25154;-33.684;151.102;2023-08-01T02:56:40;19.40;86.60
39453;DHT22;25154;-33.684;151.102;2023-08-01T03:01:43;20.10;86.50
39453;DHT22;25154;-33.684;151.102;2023-08-01T03:06:46;20.20;85.10
39453;DHT22;25154;-33.684;151.102;2023-08-01T03:11:48;20.50;84.10
39453;DHT22;25154;-33.684;151.102;2023-08-01T03:16:51;20.20;83.30
39453;DHT22;25154;-33.684;151.102;2023-08-01T03:21:55;21.20;84.90
39453;DHT22;25154;-33.684;151.102;2023-08-01T03:26:57;21.30;81.10
39453;DHT22;25154;-33.684;151.102;2023-08-01T03:32:00;21.00;82.70
39453;DHT22;25154;-33.684;151.102;2023-08-01T03:37:03;21.60;80.40
39453;DHT22;25154;-33.684;151.102;2023-08-01T03:42:06;22.00;78.00
39453;DHT22;25154;-33.684;151.102;2023-08-01T03:47:09;22.00;77.50
39453;DHT22;25154;-33.684;151.102;2023-08-01T03:52:12;22.00;77.60
39453;DHT22;25154;-33.684;151.102;2023-08-01T03:57:15;22.20;77.50
39453;DHT22;25154;-33.684;151.102;2023-08-01T04:02:18;22.20;74.80
39453;DHT22;25154;-33.684;151.102;2023-08-01T04:07:21;22.20;75.80
39453;DHT22;25154;-33.684;151.102;2023-08-01T04:12:23;22.10;76.20
39453;DHT22;25154;-33.684;151.102;2023-08-01T04:17:26;21.70;77.10
39453;DHT22;25154;-33.684;151.102;2023-08-01T04:22:31;22.90;74.80
39453;DHT22;25154;-33.684;151.102;2023-08-01T04:27:34;22.90;74.00
39453;DHT22;25154;-33.684;151.102;2023-08-01T04:32:37;22.30;73.80
39453;DHT22;25154;-33.684;151.102;2023-08-01T04:37:39;22.70;77.90
39453;DHT22;25154;-33.684;151.102;2023-08-01T04:42:42;23.40;74.40
39453;DHT22;25154;-33.684;151.102;2023-08-01T04:47:45;22.10;71.90
39453;DHT22;25154;-33.684;151.102;2023-08-01T04:52:47;25.60;69.80
39453;DHT22;25154;-33.684;151.102;2023-08-01T04:57:50;28.50;63.70
39453;DHT22;25154;-33.684;151.102;2023-08-01T05:02:53;30.20;59.50
39453;DHT22;25154;-33.684;151.102;2023-08-01T05:07:55;31.10;55.70
39453;DHT22;25154;-33.684;151.102;2023-08-01T05:12:58;31.70;55.10
39453;DHT22;25154;-33.684;151.102;2023-08-01T05:18:01;31.30;52.70
39453;DHT22;25154;-33.684;151.102;2023-08-01T05:23:03;32.60;53.10
39453;DHT22;25154;-33.684;151.102;2023-08-01T05:28:06;32.60;52.00
39453;DHT22;25154;-33.684;151.102;2023-08-01T05:33:09;32.60;50.00
39453;DHT22;25154;-33.684;151.102;2023-08-01T05:38:11;32.70;51.00
39453;DHT22;25154;-33.684;151.102;2023-08-01T05:43:14;33.50;50.40
39453;DHT22;25154;-33.684;151.102;2023-08-01T05:48:17;34.10;50.40
39453;DHT22;25154;-33.684;151.102;2023-08-01T05:53:20;33.20;51.00
39453;DHT22;25154;-33.684;151.102;2023-08-01T05:58:22;32.80;51.70
39453;DHT22;25154;-33.684;151.102;2023-08-01T06:03:25;30.00;54.10
39453;DHT22;25154;-33.684;151.102;2023-08-01T06:08:28;24.80;61.60
39453;DHT22;25154;-33.684;151.102;2023-08-01T06:13:31;23.40;65.20
39453;DHT22;25154;-33.684;151.102;2023-08-01T06:18:34;21.80;67.60
39453;DHT22;25154;-33.684;151.102;2023-08-01T06:23:36;21.10;69.80
39453;DHT22;25154;-33.684;151.102;2023-08-01T06:28:39;21.20;69.30
39453;DHT22;25154;-33.684;151.102;2023-08-01T06:33:42;22.10;68.60
39453;DHT22;25154;-33.684;151.102;2023-08-01T06:38:45;20.90;71.40
39453;DHT22;25154;-33.684;151.102;2023-08-01T06:43:48;19.60;76.80
39453;DHT22;25154;-33.684;151.102;2023-08-01T06:48:50;18.50;79.00
39453;DHT22;25154;-33.684;151.102;2023-08-01T06:53:53;17.60;81.00
39453;DHT22;25154;-33.684;151.102;2023-08-01T06:58:56;17.20;85.40
39453;DHT22;25154;-33.684;151.102;2023-08-01T07:03:59;16.70;88.20
39453;DHT22;25154;-33.684;151.102;2023-08-01T07:09:01;16.30;92.40
39453;DHT22;25154;-33.684;151.102;2023-08-01T07:14:04;15.80;92.30
39453;DHT22;25154;-33.684;151.102;2023-08-01T07:19:07;15.40;95.30
39453;DHT22;25154;-33.684;151.102;2023-08-01T07:24:09;15.10;97.90
39453;DHT22;25154;-33.684;151.102;2023-08-01T07:29:12;14.70;99.40
39453;DHT22;25154;-33.684;151.102;2023-08-01T07:34:17;14.50;99.90
39453;DHT22;25154;-33.684;151.102;2023-08-01T07:39:20;14.30;99.90
39453;DHT22;25154;-33.684;151.102;2023-08-01T07:44:23;14.00;99.90
39453;DHT22;25154;-33.684;151.102;2023-08-01T07:49:25;13.80;99.90
39453;DHT22;25154;-33.684;151.102;2023-08-01T07:54:28;13.60;99.90
39453;DHT22;25154;-33.684;151.102;2023-08-01T07:59:31;13.40;99.90
39453;DHT22;25154;-33.684;151.102;2023-08-01T08:04:37;13.30;99.90
39453;DHT22;25154;-33.684;151.102;2023-08-01T08:09:39;13.20;99.90
39453;DHT22;25154;-33.684;151.102;2023-08-01T08:14:42;13.10;99.90
39453;DHT22;25154;-33.684;151.102;2023-08-01T08:19:46;13.00;99.90
39453;DHT22;25154;-33.684;151.102;2023-08-01T08:24:49;12.80;99.90
39453;DHT22;25154;-33.684;151.102;2023-08-01T08:29:52;12.70;99.90
39453;DHT22;25154;-33.684;151.102;2023-08-01T08:34:54;12.60;99.90
39453;DHT22;25154;-33.684;151.102;2023-08-01T08:39:57;12.40;99.90
39453;DHT22;25154;-33.684;151.102;2023-08-01T08:45:02;12.20;99.90
39453;DHT22;25154;-33.684;151.102;2023-08-01T08:50:05;12.20;99.90
39453;DHT22;25154;-33.684;151.102;2023-08-01T08:55:08;12.20;99.90
39453;DHT22;25154;-33.684;151.102;2023-08-01T09:00:12;12.10;99.90
39453;DHT22;25154;-33.684;151.102;2023-08-01T09:05:15;12.00;99.90
39453;DHT22;25154;-33.684;151.102;2023-08-01T09:10:18;12.00;99.90
39453;DHT22;25154;-33.684;151.102;2023-08-01T09:15:21;11.80;99.90
39453;DHT22;25154;-33.684;151.102;2023-08-01T09:20:24;11.80;99.90
39453;DHT22;25154;-33.684;151.102;2023-08-01T09:25:33;11.60;99.90
39453;DHT22;25154;-33.684;151.102;2023-08-01T09:30:55;11.50;99.90
39453;DHT22;25154;-33.684;151.102;2023-08-01T09:35:59;11.40;99.90
39453;DHT22;25154;-33.684;151.102;2023-08-01T09:41:02;11.40;99.90
39453;DHT22;25154;-33.684;151.102;2023-08-01T09:46:07;11.20;99.90
39453;DHT22;25154;-33.684;151.102;2023-08-01T09:51:12;11.20;99.90
39453;DHT22;25154;-33.684;151.102;2023-08-01T09:56:23;11.10;99.90
39453;DHT22;25154;-33.684;151.102;2023-08-01T10:01:26;11.20;99.90
39453;DHT22;25154;-33.684;151.102;2023-08-01T10:06:33;10.90;99.90
39453;DHT22;25154;-33.684;151.102;2023-08-01T10:11:36;11.00;99.90
39453;DHT22;25154;-33.684;151.102;2023-08-01T10:16:41;11.20;99.90
39453;DHT22;25154;-33.684;151.102;2023-08-01T10:21:45;11.20;99.90
39453;DHT22;25154;-33.684;151.102;2023-08-01T10:26:49;10.90;99.90
39453;DHT22;25154;-33.684;151.102;2023-08-01T10:31:53;11.00;99.90
39453;DHT22;25154;-33.684;151.102;2023-08-01T10:36:57;11.10;99.90
39453;DHT22;25154;-33.684;151.102;2023-08-01T10:42:02;10.90;99.90
39453;DHT22;25154;-33.684;151.102;2023-08-01T10:47:05;11.10;99.90
39453;DHT22;25154;-33.684;151.102;2023-08-01T10:52:18;11.00;99.90
39453;DHT22;25154;-33.684;151.102;2023-08-01T10:57:21;10.70;99.90
39453;DHT22;25154;-33.684;151.102;2023-08-01T11:02:28;10.70;99.90
39453;DHT22;25154;-33.684;151.102;2023-08-01T11:07:32;10.80;99.90
39453;DHT22;25154;-33.684;151.102;2023-08-01T11:12:39;10.80;99.90
39453;DHT22;25154;-33.684;151.102;2023-08-01T11:17:54;10.60;99.90
39453;DHT22;25154;-33.684;151.102;2023-08-01T11:22:58;10.80;99.90
39453;DHT22;25154;-33.684;151.102;2023-08-01T11:28:11;10.80;99.90
39453;DHT22;25154;-33.684;151.102;2023-08-01T11:33:20;10.60;99.90
39453;DHT22;25154;-33.684;151.102;2023-08-01T11:38:23;10.80;99.90
39453;DHT22;25154;-33.684;151.102;2023-08-01T11:43:37;10.60;99.90
39453;DHT22;25154;-33.684;151.102;2023-08-01T11:48:44;10.60;99.90
39453;DHT22;25154;-33.684;151.102;2023-08-01T11:53:46;10.60;99.90
39453;DHT22;25154;-33.684;151.102;2023-08-01T11:58:49;10.50;99.90
39453;DHT22;25154;-33.684;151.102;2023-08-01T12:03:53;10.60;99.90
39453;DHT22;25154;-33.684;151.102;2023-08-01T12:09:10;10.40;99.90
39453;DHT22;25154;-33.684;151.102;2023-08-01T12:14:14;10.50;99.90
39453;DHT22;25154;-33.684;151.102;2023-08-01T12:19:19;10.40;99.90
39453;DHT22;25154;-33.684;151.102;2023-08-01T12:24:21;10.10;99.90
39453;DHT22;25154;-33.684;151.102;2023-08-01T12:29:24;10.30;99.90
39453;DHT22;25154;-33.684;151.102;2023-08-01T12:34:26;10.00;99.90
39453;DHT22;25154;-33.684;151.102;2023-08-01T12:39:28;10.20;99.90
39453;DHT22;25154;-33.684;151.102;2023-08-01T12:44:31;10.00;99.90
39453;DHT22;25154;-33.684;151.102;2023-08-01T12:49:33;10.00;99.90
39453;DHT22;25154;-33.684;151.102;2023-08-01T12:54:35;10.00;99.90
39453;DHT22;25154;-33.684;151.102;2023-08-01T12:59:38;10.10;99.90
39453;DHT22;25154;-33.684;151.102;2023-08-01T13:04:41;10.20;99.90
39453;DHT22;25154;-33.684;151.102;2023-08-01T13:09:44;10.00;99.90
39453;DHT22;25154;-33.684;151.102;2023-08-01T13:14:47;10.00;99.90
39453;DHT22;25154;-33.684;151.102;2023-08-01T13:19:49;10.10;99.90
39453;DHT22;25154;-33.684;151.102;2023-08-01T13:24:52;9.90;99.90
39453;DHT22;25154;-33.684;151.102;2023-08-01T13:29:55;10.00;99.90
39453;DHT22;25154;-33.684;151.102;2023-08-01T13:34:58;9.90;99.90
39453;DHT22;25154;-33.684;151.102;2023-08-01T13:40:01;9.80;99.90
39453;DHT22;25154;-33.684;151.102;2023-08-01T13:45:04;10.00;99.90
39453;DHT22;25154;-33.684;151.102;2023-08-01T13:50:07;10.10;99.90
39453;DHT22;25154;-33.684;151.102;2023-08-01T13:55:10;10.10;99.90
39453;DHT22;25154;-33.684;151.102;2023-08-01T14:00:13;9.90;99.90
39453;DHT22;25154;-33.684;151.102;2023-08-01T14:05:15;10.10;99.90
39453;DHT22;25154;-33.684;151.102;2023-08-01T14:10:18;10.10;99.90
39453;DHT22;25154;-33.684;151.102;2023-08-01T14:15:21;10.00;99.90
39453;DHT22;25154;-33.684;151.102;2023-08-01T14:20:24;9.70;99.90
39453;DHT22;25154;-33.684;151.102;2023-08-01T14:25:27;9.60;99.90
39453;DHT22;25154;-33.684;151.102;2023-08-01T14:30:29;9.60;99.90
39453;DHT22;25154;-33.684;151.102;2023-08-01T14:35:32;9.70;99.90
39453;DHT22;25154;-33.684;151.102;2023-08-01T14:40:39;10.00;99.90
39453;DHT22;25154;-33.684;151.102;2023-08-01T14:45:41;9.90;99.90
39453;DHT22;25154;-33.684;151.102;2023-08-01T14:50:44;10.30;99.90
39453;DHT22;25154;-33.684;151.102;2023-08-01T14:55:55;10.40;99.90
39453;DHT22;25154;-33.684;151.102;2023-08-01T15:00:57;10.40;99.90
39453;DHT22;25154;-33.684;151.102;2023-08-01T15:06:06;10.20;99.90
39453;DHT22;25154;-33.684;151.102;2023-08-01T15:11:09;10.20;99.90
39453;DHT22;25154;-33.684;151.102;2023-08-01T15:16:11;10.30;99.90
39453;DHT22;25154;-33.684;151.102;2023-08-01T15:21:14;10.20;99.90
39453;DHT22;25154;-33.684;151.102;2023-08-01T15:26:16;9.80;99.90
39453;DHT22;25154;-33.684;151.102;2023-08-01T15:31:18;9.80;99.90
39453;DHT22;25154;-33.684;151.102;2023-08-01T15:36:27;9.80;99.90
39453;DHT22;25154;-33.684;151.102;2023-08-01T15:41:29;9.80;99.90
39453;DHT22;25154;-33.684;151.102;2023-08-01T15:46:34;9.80;99.90
39453;DHT22;25154;-33.684;151.102;2023-08-01T15:51:36;9.70;99.90
39453;DHT22;25154;-33.684;151.102;2023-08-01T15:56:39;9.60;99.90
39453;DHT22;25154;-33.684;151.102;2023-08-01T16:01:43;9.20;99.90
39453;DHT22;25154;-33.684;151.102;2023-08-01T16:06:46;9.30;99.90
39453;DHT22;25154;-33.684;151.102;2023-08-01T16:11:49;9.20;99.90
39453;DHT22;25154;-33.684;151.102;2023-08-01T16:16:52;8.90;99.90
39453;DHT22;25154;-33.684;151.102;2023-08-01T16:21:54;9.00;99.90
39453;DHT22;25154;-33.684;151.102;2023-08-01T16:26:57;9.10;99.90
39453;DHT22;25154;-33.684;151.102;2023-08-01T16:32:00;9.40;99.90
39453;DHT22;25154;-33.684;151.102;2023-08-01T16:37:03;9.40;99.90
39453;DHT22;25154;-33.684;151.102;2023-08-01T16:42:05;9.40;99.90
39453;DHT22;25154;-33.684;151.102;2023-08-01T16:47:08;9.70;99.90
39453;DHT22;25154;-33.684;151.102;2023-08-01T16:52:12;9.80;99.90
39453;DHT22;25154;-33.684;151.102;2023-08-01T16:57:14;9.60;99.90
39453;DHT22;25154;-33.684;151.102;2023-08-01T17:02:16;9.60;99.90
39453;DHT22;25154;-33.684;151.102;2023-08-01T17:07:19;9.80;99.90
39453;DHT22;25154;-33.684;151.102;2023-08-01T17:12:21;9.80;99.90
39453;DHT22;25154;-33.684;151.102;2023-08-01T17:17:23;9.80;99.90
39453;DHT22;25154;-33.684;151.102;2023-08-01T17:22:26;9.50;99.90
39453;DHT22;25154;-33.684;151.102;2023-08-01T17:27:31;9.10;99.90
39453;DHT22;25154;-33.684;151.102;2023-08-01T17:32:33;9.10;99.90
39453;DHT22;25154;-33.684;151.102;2023-08-01T17:37:37;9.30;99.90
39453;DHT22;25154;-33.684;151.102;2023-08-01T17:42:39;8.90;99.90
39453;DHT22;25154;-33.684;151.102;2023-08-01T17:47:42;8.80;99.90
39453;DHT22;25154;-33.684;151.102;2023-08-01T17:52:45;8.80;99.90
39453;DHT22;25154;-33.684;151.102;2023-08-01T17:57:48;8.90;99.90
39453;DHT22;25154;-33.684;151.102;2023-08-01T18:02:50;10.90;99.90
39453;DHT22;25154;-33.684;151.102;2023-08-01T18:07:53;8.50;99.90
39453;DHT22;25154;-33.684;151.102;2023-08-01T18:12:56;8.40;99.90
39453;DHT22;25154;-33.684;151.102;2023-08-01T18:17:59;8.80;99.90
39453;DHT22;25154;-33.684;151.102;2023-08-01T18:23:01;8.90;99.90
39453;DHT22;25154;-33.684;151.102;2023-08-01T18:28:04;9.00;99.90
39453;DHT22;25154;-33.684;151.102;2023-08-01T18:33:09;8.70;99.90
39453;DHT22;25154;-33.684;151.102;2023-08-01T18:38:11;8.80;99.90
39453;DHT22;25154;-33.684;151.102;2023-08-01T18:43:14;8.80;99.90
39453;DHT22;25154;-33.684;151.102;2023-08-01T18:48:16;8.80;99.90
39453;DHT22;25154;-33.684;151.102;2023-08-01T18:53:18;8.80;99.90
39453;DHT22;25154;-33.684;151.102;2023-08-01T18:58:20;8.80;99.90
39453;DHT22;25154;-33.684;151.102;2023-08-01T19:03:23;8.70;99.90
39453;DHT22;25154;-33.684;151.102;2023-08-01T19:08:25;9.00;99.90
39453;DHT22;25154;-33.684;151.102;2023-08-01T19:13:30;9.10;99.90
39453;DHT22;25154;-33.684;151.102;2023-08-01T19:18:33;9.10;99.90
39453;DHT22;25154;-33.684;151.102;2023-08-01T19:23:35;9.30;99.90
39453;DHT22;25154;-33.684;151.102;2023-08-01T19:28:38;9.30;99.90
39453;DHT22;25154;-33.684;151.102;2023-08-01T19:33:42;9.40;99.90
39453;DHT22;25154;-33.684;151.102;2023-08-01T19:38:46;9.60;99.90
39453;DHT22;25154;-33.684;151.102;2023-08-01T19:43:49;9.40;99.90
39453;DHT22;25154;-33.684;151.102;2023-08-01T19:48:52;9.20;99.90
39453;DHT22;25154;-33.684;151.102;2023-08-01T19:53:55;9.00;99.90
39453;DHT22;25154;-33.684;151.102;2023-08-01T19:58:58;8.90;99.90
39453;DHT22;25154;-33.684;151.102;2023-08-01T20:04:00;9.00;99.90
39453;DHT22;25154;-33.684;151.102;2023-08-01T20:09:03;9.10;99.90
39453;DHT22;25154;-33.684;151.102;2023-08-01T20:14:06;9.20;99.90
39453;DHT22;25154;-33.684;151.102;2023-08-01T20:19:09;9.00;99.90
39453;DHT22;25154;-33.684;151.102;2023-08-01T20:24:11;9.20;99.90
39453;DHT22;25154;-33.684;151.102;2023-08-01T20:29:15;9.10;99.90
39453;DHT22;25154;-33.684;151.102;2023-08-01T20:34:18;9.30;99.90
39453;DHT22;25154;-33.684;151.102;2023-08-01T20:39:21;9.30;99.90
39453;DHT22;25154;-33.684;151.102;2023-08-01T20:44:24;8.90;99.90
39453;DHT22;25154;-33.684;151.102;2023-08-01T20:49:27;9.10;99.90
39453;DHT22;25154;-33.684;151.102;2023-08-01T20:54:30;9.20;99.90
39453;DHT22;25154;-33.684;151.102;2023-08-01T20:59:32;9.30;99.90
39453;DHT22;25154;-33.684;151.102;2023-08-01T21:04:36;8.90;99.90
39453;DHT22;25154;-33.684;151.102;2023-08-01T21:09:39;8.70;99.90
39453;DHT22;25154;-33.684;151.102;2023-08-01T21:14:42;8.90;99.90
39453;DHT22;25154;-33.684;151.102;2023-08-01T21:19:45;8.70;99.90
39453;DHT22;25154;-33.684;151.102;2023-08-01T21:24:47;8.50;99.90
39453;DHT22;25154;-33.684;151.102;2023-08-01T21:29:50;8.70;99.90
39453;DHT22;25154;-33.684;151.102;2023-08-01T21:34:52;8.90;99.90
39453;DHT22;25154;-33.684;151.102;2023-08-01T21:39:55;9.30;99.90
39453;DHT22;25154;-33.684;151.102;2023-08-01T21:44:59;9.30;99.90
39453;DHT22;25154;-33.684;151.102;2023-08-01T21:50:02;9.50;99.90
39453;DHT22;25154;-33.684;151.102;2023-08-01T21:55:05;9.70;99.90
39453;DHT22;25154;-33.684;151.102;2023-08-01T22:00:08;10.00;99.90
39453;DHT22;25154;-33.684;151.102;2023-08-01T22:05:11;10.50;99.90
39453;DHT22;25154;-33.684;151.102;2023-08-01T22:10:14;10.60;99.90
39453;DHT22;25154;-33.684;151.102;2023-08-01T22:15:17;11.00;99.90
39453;DHT22;25154;-33.684;151.102;2023-08-01T22:20:20;11.50;99.90
39453;DHT22;25154;-33.684;151.102;2023-08-01T22:25:24;11.50;99.90
39453;DHT22;25154;-33.684;151.102;2023-08-01T22:30:26;11.10;99.90
39453;DHT22;25154;-33.684;151.102;2023-08-01T22:35:29;11.00;99.90
39453;DHT22;25154;-33.684;151.102;2023-08-01T22:40:31;10.90;99.90
39453;DHT22;25154;-33.684;151.102;2023-08-01T22:45:34;11.40;99.90
39453;DHT22;25154;-33.684;151.102;2023-08-01T22:50:36;12.10;99.90
39453;DHT22;25154;-33.684;151.102;2023-08-01T22:55:38;12.50;99.90
39453;DHT22;25154;-33.684;151.102;2023-08-01T23:00:41;12.50;99.90
39453;DHT22;25154;-33.684;151.102;2023-08-01T23:05:43;12.40;99.90
39453;DHT22;25154;-33.684;151.102;2023-08-01T23:10:46;12.50;99.90
39453;DHT22;25154;-33.684;151.102;2023-08-01T23:15:49;12.80;99.90
39453;DHT22;25154;-33.684;151.102;2023-08-01T23:20:57;12.80;99.90
39453;DHT22;25154;-33.684;151.102;2023-08-01T23:26:07;13.00;99.90
39453;DHT22;25154;-33.684;151.102;2023-08-01T23:31:09;13.20;99.90
39453;DHT22;25154;-33.684;151.102;2023-08-01T23:36:12;13.60;99.90
39453;DHT22;25154;-33.684;151.102;2023-08-01T23:41:15;13.80;99.90
39453;DHT22;25154;-33.684;151.102;2023-08-01T23:46:20;13.80;99.90
39453;DHT22;25154;-33.684;151.102;2023-08-01T23:51:22;12.80;99.90
39453;DHT22;25154;-33.684;151.102;2023-08-01T23:56:25;14.40;99.90
